Time;durP1;ratioP1;P1;durP2;ratioP2;P2;SDS_P1;SDS_P2;PMS_P1;PMS_P2;Temp;Humidity;BMP_temperature;BMP_pressure;BME280_temperature;BME280_humidity;BME280_pressure;Samples;Min_cycle;Max_cycle;Signal;HPM_P1;HPM_P2
2022/10/05 00:01:18;;;;;;;3.73;2.00;;;15.80;99.90;;;;;;5091860;28;20282;-85
2022/10/05 00:03:44;;;;;;;3.17;2.13;;;15.80;99.90;;;;;;5078127;28;20281;-86
2022/10/05 00:06:11;;;;;;;2.93;2.40;;;15.80;99.90;;;;;;5043295;28;20220;-84
2022/10/05 00:08:37;;;;;;;4.47;2.40;;;15.80;99.90;;;;;;5057233;28;20683;-86
2022/10/05 00:11:07;;;;;;;2.80;2.43;;;15.70;99.90;;;;;;5076714;28;20192;-86
2022/10/05 00:13:33;;;;;;;4.87;2.40;;;15.70;99.90;;;;;;5075175;28;20275;-85
2022/10/05 00:16:11;;;;;;;5.80;2.80;;;15.70;99.90;;;;;;5076116;28;20656;-86
2022/10/05 00:18:38;;;;;;;8.70;3.40;;;15.70;99.90;;;;;;5075274;28;20232;-84
2022/10/05 00:21:27;;;;;;;5.00;2.90;;;15.70;99.90;;;;;;5072387;28;20897;-86
2022/10/05 00:23:56;;;;;;;4.00;2.50;;;15.70;99.90;;;;;;5068003;28;20227;-85
2022/10/05 00:26:23;;;;;;;7.77;3.10;;;15.70;99.90;;;;;;5075292;28;20551;-86
2022/10/05 00:28:49;;;;;;;3.30;2.80;;;15.70;99.90;;;;;;5077050;28;20193;-86
2022/10/05 00:31:24;;;;;;;4.67;2.73;;;15.70;99.90;;;;;;5055816;28;20709;-86
2022/10/05 00:33:50;;;;;;;4.37;2.63;;;15.70;99.90;;;;;;5074700;28;20725;-84
2022/10/05 00:36:16;;;;;;;4.47;2.23;;;15.70;99.90;;;;;;5074314;28;20224;-87
2022/10/05 00:38:43;;;;;;;3.23;2.40;;;15.70;99.90;;;;;;5056189;28;20220;-85
2022/10/05 00:41:21;;;;;;;4.07;2.70;;;15.70;99.90;;;;;;5074412;28;20212;-85
2022/10/05 00:43:56;;;;;;;4.53;2.60;;;15.70;99.90;;;;;;5076209;28;20327;-86
2022/10/05 00:46:47;;;;;;;2.53;2.03;;;15.70;99.90;;;;;;5075774;28;20224;-84
2022/10/05 00:49:47;;;;;;;2.57;2.20;;;15.70;99.90;;;;;;5074428;28;20332;-88
2022/10/05 00:52:58;;;;;;;3.20;1.80;;;15.70;99.90;;;;;;5073582;28;20217;-84
2022/10/05 00:55:57;;;;;;;2.20;1.40;;;15.70;99.90;;;;;;5037267;28;20212;-83
2022/10/05 00:58:55;;;;;;;5.67;2.63;;;15.70;99.90;;;;;;5072109;28;20305;-84
2022/10/05 01:01:49;;;;;;;3.00;2.37;;;15.70;99.90;;;;;;5075915;28;20272;-85
2022/10/05 01:04:28;;;;;;;2.40;2.00;;;15.80;99.90;;;;;;5074758;28;20218;-85
2022/10/05 01:07:16;;;;;;;3.80;1.90;;;15.80;99.90;;;;;;5076017;28;20682;-85
2022/10/05 01:10:04;;;;;;;3.00;2.00;;;15.80;99.90;;;;;;5074318;28;20228;-85
2022/10/05 01:12:39;;;;;;;2.00;1.73;;;15.80;99.90;;;;;;5072864;28;20221;-85
2022/10/05 01:15:26;;;;;;;5.00;2.10;;;15.80;99.90;;;;;;5075182;28;20216;-86
2022/10/05 01:18:01;;;;;;;5.10;2.00;;;15.80;99.90;;;;;;5071050;28;20225;-83
2022/10/05 01:20:41;;;;;;;1.63;1.50;;;15.80;99.90;;;;;;5076828;28;20710;-84
2022/10/05 01:23:46;;;;;;;3.37;1.63;;;15.80;99.90;;;;;;5077695;28;20185;-86
2022/10/05 01:26:21;;;;;;;4.53;2.33;;;15.80;99.90;;;;;;5076075;28;20229;-85
2022/10/05 01:28:53;;;;;;;7.97;3.30;;;15.80;99.90;;;;;;5078294;28;20199;-85
2022/10/05 01:31:39;;;;;;;3.27;2.10;;;15.80;99.90;;;;;;5078797;28;20682;-85
2022/10/05 01:34:23;;;;;;;5.90;2.53;;;15.80;99.90;;;;;;5075075;28;20225;-86
2022/10/05 01:37:14;;;;;;;2.73;2.13;;;15.80;99.90;;;;;;5074557;28;20636;-86
2022/10/05 01:40:06;;;;;;;2.20;1.77;;;15.70;99.90;;;;;;5074895;28;20236;-84
2022/10/05 01:43:04;;;;;;;4.97;2.13;;;15.70;99.90;;;;;;5075675;28;20228;-86
2022/10/05 01:45:52;;;;;;;4.60;1.77;;;15.70;99.90;;;;;;5075664;28;20225;-88
2022/10/05 01:49:02;;;;;;;3.03;2.20;;;15.70;99.90;;;;;;5078005;28;20315;-89
2022/10/05 01:51:41;;;;;;;2.27;1.80;;;15.70;99.90;;;;;;5077979;28;20230;-87
2022/10/05 01:54:25;;;;;;;3.17;2.40;;;15.70;99.90;;;;;;5078757;28;20759;-87
2022/10/05 01:57:26;;;;;;;3.53;1.80;;;15.70;99.90;;;;;;5077059;28;20221;-85
2022/10/05 02:00:16;;;;;;;1.97;1.50;;;15.60;99.90;;;;;;5059661;28;20243;-86
2022/10/05 02:03:10;;;;;;;2.97;1.73;;;15.60;99.90;;;;;;5078533;28;20234;-86
2022/10/05 02:06:00;;;;;;;2.70;2.50;;;15.60;99.90;;;;;;5076958;28;21034;-88
2022/10/05 02:08:37;;;;;;;4.57;2.40;;;15.60;99.90;;;;;;5076579;28;20210;-85
2022/10/05 02:11:09;;;;;;;3.27;2.13;;;15.60;99.90;;;;;;5076705;28;20203;-86
2022/10/05 02:14:05;;;;;;;3.37;2.17;;;15.60;99.90;;;;;;5076453;28;20545;-84
2022/10/05 02:16:36;;;;;;;5.27;2.60;;;15.60;99.90;;;;;;5078386;28;20241;-84
2022/10/05 02:19:22;;;;;;;2.60;1.87;;;15.60;99.90;;;;;;5076663;28;20229;-83
2022/10/05 02:21:58;;;;;;;3.07;2.50;;;15.60;99.90;;;;;;5077266;28;20268;-87
2022/10/05 02:24:50;;;;;;;2.40;1.83;;;15.60;99.90;;;;;;5076977;28;20216;-84
2022/10/05 02:27:21;;;;;;;18.83;3.40;;;15.60;99.90;;;;;;5075577;28;20220;-88
2022/10/05 02:29:49;;;;;;;4.83;2.87;;;15.70;99.90;;;;;;5077882;28;20233;-84
2022/10/05 02:32:22;;;;;;;3.30;2.57;;;15.70;99.90;;;;;;5077054;28;20228;-88
2022/10/05 02:34:48;;;;;;;6.53;3.70;;;15.70;99.90;;;;;;5076068;28;20217;-85
2022/10/05 02:37:30;;;;;;;2.93;2.10;;;15.70;99.90;;;;;;5060530;28;20739;-88
2022/10/05 02:39:59;;;;;;;7.07;2.90;;;15.70;99.90;;;;;;5077468;28;20786;-85
2022/10/05 02:42:45;;;;;;;2.50;2.03;;;15.70;99.90;;;;;;5076472;28;20223;-83
2022/10/05 02:45:41;;;;;;;6.13;2.57;;;15.70;99.90;;;;;;5077831;28;20217;-85
2022/10/05 02:48:41;;;;;;;3.37;2.07;;;15.70;99.90;;;;;;5053404;28;20232;-87
2022/10/05 02:51:25;;;;;;;2.57;2.07;;;15.70;99.90;;;;;;5075563;28;20244;-86
2022/10/05 02:54:20;;;;;;;3.70;2.50;;;15.70;99.90;;;;;;5078603;28;20208;-87
2022/10/05 02:57:04;;;;;;;5.63;2.60;;;15.70;99.90;;;;;;5078302;28;20285;-84
2022/10/05 02:59:45;;;;;;;3.70;2.60;;;15.70;99.90;;;;;;5077378;28;21100;-86
2022/10/05 03:02:21;;;;;;;7.67;3.10;;;15.70;99.90;;;;;;5078081;28;20216;-85
2022/10/05 03:05:15;;;;;;;4.13;2.00;;;15.70;99.90;;;;;;5075150;28;20212;-85
2022/10/05 03:08:01;;;;;;;6.63;2.70;;;15.70;99.90;;;;;;5074724;28;20282;-84
2022/10/05 03:10:47;;;;;;;2.37;1.87;;;15.70;99.90;;;;;;5035016;28;20231;-87
2022/10/05 03:13:42;;;;;;;5.83;3.00;;;15.60;99.90;;;;;;5075434;28;20221;-89
2022/10/05 03:16:19;;;;;;;2.37;1.80;;;15.60;99.90;;;;;;5075136;28;20245;-86
2022/10/05 03:19:03;;;;;;;4.83;2.60;;;15.60;99.90;;;;;;5075606;28;20212;-85
2022/10/05 03:21:31;;;;;;;2.50;1.97;;;15.60;99.90;;;;;;5075671;28;20224;-88
2022/10/05 03:24:27;;;;;;;2.20;2.00;;;15.60;99.90;;;;;;5075987;28;20719;-89
2022/10/05 03:26:53;;;;;;;2.20;1.87;;;15.60;99.90;;;;;;5075833;28;20264;-85
2022/10/05 03:29:46;;;;;;;4.00;1.50;;;15.60;99.90;;;;;;5075595;28;20197;-85
2022/10/05 03:32:47;;;;;;;3.57;2.10;;;15.60;99.90;;;;;;5076210;28;20275;-85
2022/10/05 03:35:31;;;;;;;3.23;2.23;;;15.60;99.90;;;;;;5074154;28;20228;-86
2022/10/05 03:38:13;;;;;;;5.23;2.17;;;15.60;99.90;;;;;;5074968;28;20177;-85
2022/10/05 03:40:49;;;;;;;1.50;1.30;;;15.60;99.90;;;;;;5077689;28;20235;-86
2022/10/05 03:43:23;;;;;;;2.30;1.60;;;15.60;99.90;;;;;;5075047;28;20235;-84
2022/10/05 03:46:11;;;;;;;1.67;1.40;;;15.70;99.90;;;;;;5075761;28;20297;-85
2022/10/05 03:49:03;;;;;;;2.70;1.70;;;15.70;99.90;;;;;;5074988;28;20243;-86
2022/10/05 03:51:34;;;;;;;1.90;1.70;;;15.70;99.90;;;;;;5073383;28;20250;-85
2022/10/05 03:54:09;;;;;;;10.97;1.97;;;15.70;99.90;;;;;;5077350;28;20216;-84
2022/10/05 03:56:37;;;;;;;3.17;1.23;;;15.60;99.90;;;;;;5072857;28;20177;-85
2022/10/05 03:59:20;;;;;;;3.47;1.43;;;15.60;99.90;;;;;;5076614;28;20177;-88
2022/10/05 04:01:52;;;;;;;1.93;1.47;;;15.70;99.90;;;;;;5073954;28;20217;-85
2022/10/05 04:04:46;;;;;;;3.63;1.30;;;15.70;99.90;;;;;;5074011;28;20217;-88
2022/10/05 04:07:31;;;;;;;2.77;1.40;;;15.70;99.90;;;;;;5070897;28;20228;-86
2022/10/05 04:09:59;;;;;;;3.73;1.73;;;15.70;99.90;;;;;;5073966;28;20729;-88
2022/10/05 04:12:31;;;;;;;1.60;1.07;;;15.70;99.90;;;;;;5076517;28;20244;-85
2022/10/05 04:15:15;;;;;;;1.20;1.10;;;15.70;99.90;;;;;;5074755;28;20221;-88
2022/10/05 04:17:47;;;;;;;4.40;1.63;;;15.70;99.90;;;;;;5073147;28;20267;-86
2022/10/05 04:20:36;;;;;;;2.00;1.37;;;15.70;99.90;;;;;;5074059;28;20217;-84
2022/10/05 04:23:56;;;;;;;4.70;1.70;;;15.70;99.90;;;;;;5075997;28;20205;-84
2022/10/05 04:26:31;;;;;;;3.27;2.10;;;15.70;99.90;;;;;;5034919;28;20221;-85
2022/10/05 04:29:20;;;;;;;1.30;1.20;;;15.70;99.90;;;;;;5074564;28;20242;-87
2022/10/05 04:31:51;;;;;;;4.87;1.40;;;15.70;99.90;;;;;;5075318;28;20232;-87
2022/10/05 04:34:45;;;;;;;5.13;2.00;;;15.70;99.90;;;;;;5073071;28;20232;-86
2022/10/05 04:37:23;;;;;;;1.13;1.03;;;15.70;99.90;;;;;;5074855;28;20244;-84
2022/10/05 04:40:17;;;;;;;1.37;1.23;;;15.70;99.90;;;;;;5090905;28;20234;-85
2022/10/05 04:42:50;;;;;;;1.20;1.10;;;15.70;99.90;;;;;;5073476;28;20576;-88
2022/10/05 04:45:34;;;;;;;2.90;1.67;;;15.70;99.90;;;;;;5076251;28;20301;-85
2022/10/05 04:48:14;;;;;;;1.23;1.13;;;15.60;99.90;;;;;;5076354;28;20324;-86
2022/10/05 04:50:46;;;;;;;1.77;1.47;;;15.60;99.90;;;;;;5080039;28;20725;-86
2022/10/05 04:53:23;;;;;;;2.43;1.50;;;15.60;99.90;;;;;;5079942;28;20194;-87
2022/10/05 04:56:07;;;;;;;1.57;0.97;;;15.60;99.90;;;;;;5077881;28;20220;-86
2022/10/05 04:59:01;;;;;;;1.37;1.27;;;15.60;99.90;;;;;;5081342;28;20248;-85
2022/10/05 05:01:46;;;;;;;2.50;2.27;;;15.50;99.90;;;;;;5080153;28;20553;-86
2022/10/05 05:04:50;;;;;;;1.70;1.60;;;15.60;99.90;;;;;;5078068;28;20221;-86
2022/10/05 05:07:39;;;;;;;3.23;1.80;;;15.50;99.90;;;;;;5076892;28;20686;-85
2022/10/05 05:10:40;;;;;;;2.10;1.63;;;15.60;99.90;;;;;;5077761;28;20225;-87
2022/10/05 05:13:24;;;;;;;2.67;1.93;;;15.60;99.90;;;;;;5077414;28;20224;-85
2022/10/05 05:16:24;;;;;;;4.30;1.97;;;15.60;99.90;;;;;;5077228;28;20236;-85
2022/10/05 05:19:27;;;;;;;2.67;2.03;;;15.60;99.90;;;;;;5076806;28;20257;-88
2022/10/05 05:22:04;;;;;;;2.37;1.80;;;15.50;99.90;;;;;;5078657;28;20587;-85
2022/10/05 05:25:12;;;;;;;3.50;2.10;;;15.60;99.90;;;;;;5077313;28;20727;-86
2022/10/05 05:27:53;;;;;;;3.80;2.13;;;15.50;99.90;;;;;;5076027;28;20227;-86
2022/10/05 05:30:20;;;;;;;3.30;2.50;;;15.50;99.90;;;;;;5079753;28;20217;-84
2022/10/05 05:33:03;;;;;;;4.00;2.23;;;15.50;99.90;;;;;;5075889;28;20220;-85
2022/10/05 05:35:50;;;;;;;5.40;2.73;;;15.50;99.90;;;;;;5077862;28;20189;-86
2022/10/05 05:38:40;;;;;;;3.63;2.13;;;15.50;99.90;;;;;;5079007;28;20177;-83
2022/10/05 05:41:32;;;;;;;5.63;2.10;;;15.50;99.90;;;;;;5074378;28;20224;-85
2022/10/05 05:44:20;;;;;;;5.13;1.70;;;15.50;99.90;;;;;;5078851;28;20353;-86
2022/10/05 05:47:10;;;;;;;2.10;1.90;;;15.50;99.90;;;;;;5077977;28;20200;-83
2022/10/05 05:49:57;;;;;;;2.70;2.30;;;15.50;99.90;;;;;;5078650;28;20688;-86
2022/10/05 05:52:27;;;;;;;5.53;2.87;;;15.50;99.90;;;;;;5076334;28;20216;-85
2022/10/05 05:55:31;;;;;;;4.07;2.63;;;15.50;99.90;;;;;;5074809;28;20220;-86
2022/10/05 05:58:15;;;;;;;1.27;1.10;;;15.50;99.90;;;;;;5079021;28;20224;-88
2022/10/05 06:00:56;;;;;;;3.50;2.80;;;15.50;99.90;;;;;;5076025;28;20221;-84
2022/10/05 06:03:45;;;;;;;9.97;2.40;;;15.50;99.90;;;;;;5077418;28;20584;-85
2022/10/05 06:06:15;;;;;;;4.80;2.70;;;15.50;99.90;;;;;;5076538;28;20224;-84
2022/10/05 06:08:55;;;;;;;5.63;2.83;;;15.50;99.90;;;;;;5076465;28;20217;-84
2022/10/05 06:11:44;;;;;;;6.90;2.53;;;15.50;99.90;;;;;;5075918;28;20185;-85
2022/10/05 06:14:24;;;;;;;2.67;2.40;;;15.50;99.90;;;;;;5069428;28;20901;-87
2022/10/05 06:17:00;;;;;;;6.63;3.63;;;15.50;99.90;;;;;;5077700;28;20406;-82
2022/10/05 06:19:27;;;;;;;3.00;1.97;;;15.50;99.90;;;;;;5075663;28;20229;-82
2022/10/05 06:22:02;;;;;;;7.93;2.87;;;15.50;99.90;;;;;;5076736;28;20224;-81
2022/10/05 06:24:34;;;;;;;6.43;3.23;;;15.50;99.90;;;;;;5076022;28;20287;-84
2022/10/05 06:27:19;;;;;;;4.47;2.70;;;15.50;99.90;;;;;;5074725;28;20243;-82
2022/10/05 06:30:15;;;;;;;3.70;2.47;;;15.60;99.90;;;;;;5075707;28;21049;-83
2022/10/05 06:33:09;;;;;;;4.97;1.90;;;15.60;99.90;;;;;;5076461;28;20228;-87
2022/10/05 06:35:40;;;;;;;3.60;2.40;;;15.60;99.90;;;;;;5076496;28;20513;-85
2022/10/05 06:38:06;;;;;;;2.37;2.17;;;15.60;99.90;;;;;;5075871;28;20271;-85
2022/10/05 06:40:48;;;;;;;4.30;2.60;;;15.60;99.90;;;;;;5077100;28;20225;-84
2022/10/05 06:43:25;;;;;;;4.07;2.40;;;15.60;99.90;;;;;;5076374;28;20221;-84
2022/10/05 06:46:02;;;;;;;3.37;2.30;;;15.70;99.90;;;;;;5076545;28;20999;-83
2022/10/05 06:48:46;;;;;;;2.83;2.47;;;15.70;99.90;;;;;;5076637;28;20224;-84
2022/10/05 06:51:35;;;;;;;2.27;1.90;;;15.70;99.90;;;;;;5077176;28;20311;-85
2022/10/05 06:54:16;;;;;;;3.10;2.20;;;15.80;99.90;;;;;;5075501;28;20213;-82
2022/10/05 06:57:03;;;;;;;2.17;1.73;;;15.80;99.90;;;;;;5076008;28;20216;-83
2022/10/05 06:59:39;;;;;;;2.13;1.80;;;15.80;99.90;;;;;;5075126;28;20653;-84
2022/10/05 07:02:07;;;;;;;2.17;1.97;;;15.80;99.90;;;;;;5077137;28;20276;-88
2022/10/05 07:04:51;;;;;;;8.43;3.40;;;15.90;99.90;;;;;;5079066;28;20230;-86
2022/10/05 07:07:38;;;;;;;6.10;2.17;;;16.00;99.90;;;;;;5076228;28;20278;-87
2022/10/05 07:10:32;;;;;;;3.33;2.27;;;16.00;99.90;;;;;;5075387;28;20717;-85
2022/10/05 07:13:28;;;;;;;1.57;1.37;;;16.00;99.90;;;;;;5073908;28;20213;-85
2022/10/05 07:16:07;;;;;;;3.10;1.40;;;16.00;99.90;;;;;;5073537;28;20248;-84
2022/10/05 07:18:59;;;;;;;2.10;1.80;;;16.10;99.90;;;;;;5073426;28;20227;-86
2022/10/05 07:21:43;;;;;;;3.23;2.50;;;16.40;99.90;;;;;;5070693;28;20240;-84
2022/10/05 07:24:32;;;;;;;2.30;1.70;;;16.90;99.90;;;;;;5068285;28;20231;-88
2022/10/05 07:27:18;;;;;;;5.17;2.63;;;18.10;99.90;;;;;;5073330;28;20311;-85
2022/10/05 07:30:10;;;;;;;2.87;2.23;;;18.80;99.90;;;;;;5075266;28;20209;-84
2022/10/05 07:33:04;;;;;;;3.37;2.30;;;19.70;99.90;;;;;;5076397;28;20185;-84
2022/10/05 07:38:38;;;;;;;4.07;2.43;;;20.10;99.90;;;;;;5077176;28;20177;-85
2022/10/05 07:41:31;;;;;;;2.23;1.63;;;20.00;99.90;;;;;;5074858;28;20204;-84
2022/10/05 07:44:01;;;;;;;3.83;2.43;;;19.40;99.90;;;;;;5072690;28;20585;-84
2022/10/05 07:46:34;;;;;;;4.67;1.87;;;19.20;99.90;;;;;;5073908;28;20319;-85
2022/10/05 07:49:12;;;;;;;1.80;1.53;;;19.20;99.90;;;;;;5075996;28;20218;-84
2022/10/05 07:51:47;;;;;;;3.17;1.90;;;19.20;99.90;;;;;;5075541;28;20220;-87
2022/10/05 07:54:31;;;;;;;2.60;2.13;;;19.90;99.90;;;;;;5076525;28;20308;-84
2022/10/05 07:57:17;;;;;;;1.73;1.63;;;21.00;99.90;;;;;;5075294;28;20220;-84
2022/10/05 07:59:53;;;;;;;1.73;1.20;;;21.90;99.90;;;;;;5074556;28;20307;-86
2022/10/05 08:02:51;;;;;;;1.53;1.40;;;21.90;99.90;;;;;;5072014;28;20193;-85
2022/10/05 08:05:34;;;;;;;1.60;1.37;;;21.50;99.90;;;;;;5074436;28;20216;-82
2022/10/05 08:08:14;;;;;;;1.57;1.47;;;21.30;99.90;;;;;;5074038;28;20540;-84
2022/10/05 08:10:58;;;;;;;1.40;1.30;;;21.50;99.90;;;;;;5074685;28;20239;-82
2022/10/05 08:13:32;;;;;;;1.10;1.00;;;21.40;99.90;;;;;;5073964;28;20208;-86
2022/10/05 08:16:03;;;;;;;1.10;1.00;;;21.70;99.90;;;;;;5072237;28;20259;-85
2022/10/05 08:18:52;;;;;;;1.20;1.10;;;21.00;99.90;;;;;;5064798;28;20244;-84
2022/10/05 08:21:24;;;;;;;1.43;0.80;;;20.70;99.90;;;;;;5073195;28;20728;-84
2022/10/05 08:23:56;;;;;;;1.27;1.20;;;21.30;99.90;;;;;;5077401;28;20211;-84
2022/10/05 08:26:43;;;;;;;1.40;1.10;;;21.50;99.90;;;;;;5080191;28;20676;-85
2022/10/05 08:29:24;;;;;;;1.07;0.93;;;21.40;99.90;;;;;;5081812;28;20181;-85
2022/10/05 08:31:57;;;;;;;1.13;1.10;;;21.90;99.90;;;;;;5078310;28;20246;-84
2022/10/05 08:34:32;;;;;;;1.10;1.00;;;22.20;99.90;;;;;;5078278;28;20302;-86
2022/10/05 08:37:09;;;;;;;1.57;0.83;;;22.00;99.90;;;;;;5072815;28;20211;-82
2022/10/05 08:39:41;;;;;;;1.17;1.00;;;21.00;99.90;;;;;;5078891;28;20682;-83
2022/10/05 08:43:00;;;;;;;1.80;0.90;;;21.00;99.90;;;;;;5078166;28;20581;-86
2022/10/05 08:45:47;;;;;;;0.60;0.60;;;20.60;99.90;;;;;;5000963;28;20277;-83
2022/10/05 08:48:13;;;;;;;1.67;1.10;;;18.90;99.90;;;;;;5075994;28;20219;-85
2022/10/05 08:51:03;;;;;;;0.80;0.70;;;18.30;99.90;;;;;;5077654;28;20228;-82
2022/10/05 08:53:32;;;;;;;3.80;1.33;;;18.20;99.90;;;;;;5077332;28;20511;-84
2022/10/05 08:56:27;;;;;;;1.67;1.17;;;18.10;99.90;;;;;;5077091;28;20196;-82
2022/10/05 08:59:00;;;;;;;0.90;0.90;;;18.40;99.90;;;;;;5077378;28;20209;-83
2022/10/05 09:01:44;;;;;;;1.30;1.03;;;18.40;99.90;;;;;;5075785;28;20561;-83
2022/10/05 09:04:29;;;;;;;1.83;1.00;;;18.00;99.90;;;;;;5078609;28;20250;-86
2022/10/05 09:07:06;;;;;;;2.30;0.90;;;18.00;99.90;;;;;;5077462;28;20724;-86
2022/10/05 09:09:54;;;;;;;1.30;1.00;;;18.10;99.90;;;;;;5076909;28;20216;-85
2022/10/05 09:12:25;;;;;;;2.07;1.40;;;18.00;99.90;;;;;;5075785;28;20224;-86
2022/10/05 09:15:16;;;;;;;1.70;1.13;;;17.90;99.90;;;;;;5075354;28;20247;-83
2022/10/05 09:17:50;;;;;;;1.90;1.43;;;17.80;99.90;;;;;;5077114;28;20224;-86
2022/10/05 09:20:26;;;;;;;1.60;1.37;;;17.70;99.90;;;;;;5081871;28;20232;-84
2022/10/05 09:22:58;;;;;;;3.60;1.30;;;17.70;99.90;;;;;;5078396;28;20409;-84
2022/10/05 09:25:53;;;;;;;1.90;1.23;;;17.70;99.90;;;;;;5080184;28;20208;-83
2022/10/05 09:28:42;;;;;;;1.60;1.30;;;17.70;99.90;;;;;;5062555;28;20220;-84
2022/10/05 09:31:35;;;;;;;3.43;1.90;;;17.70;99.90;;;;;;5077975;28;20285;-88
2022/10/05 09:34:35;;;;;;;1.70;1.33;;;18.00;99.90;;;;;;5076328;28;20295;-83
2022/10/05 09:37:25;;;;;;;2.73;1.13;;;17.90;99.90;;;;;;5072173;28;20732;-80
2022/10/05 09:40:12;;;;;;;1.30;1.10;;;17.90;99.90;;;;;;5073831;28;20330;-86
2022/10/05 09:43:06;;;;;;;1.23;1.13;;;17.90;99.90;;;;;;5076585;28;20302;-83
2022/10/05 09:45:47;;;;;;;1.97;1.30;;;18.10;99.90;;;;;;5058404;28;20974;-85
2022/10/05 09:48:20;;;;;;;1.60;1.20;;;18.10;99.90;;;;;;5073315;28;20221;-84
2022/10/05 09:51:18;;;;;;;1.67;1.30;;;18.20;99.90;;;;;;5072083;28;20228;-83
2022/10/05 09:54:19;;;;;;;1.67;1.33;;;18.40;99.90;;;;;;5051092;28;20239;-82
2022/10/05 09:57:10;;;;;;;1.77;1.43;;;18.60;99.90;;;;;;5046859;28;20219;-82
2022/10/05 09:59:48;;;;;;;4.70;1.57;;;18.50;99.90;;;;;;5071629;28;20174;-82
2022/10/05 10:03:04;;;;;;;1.80;1.70;;;18.40;99.90;;;;;;5075046;28;20272;-83
2022/10/05 10:06:01;;;;;;;1.60;1.50;;;18.50;99.90;;;;;;5059713;28;20648;-82
2022/10/05 10:08:33;;;;;;;4.67;1.70;;;18.50;99.90;;;;;;5070214;28;20664;-82
2022/10/05 10:11:37;;;;;;;1.40;1.30;;;18.50;99.90;;;;;;5074188;28;20188;-81
2022/10/05 10:14:22;;;;;;;2.83;1.90;;;18.50;99.90;;;;;;5073602;28;20234;-85
2022/10/05 10:16:53;;;;;;;1.37;1.27;;;18.40;99.90;;;;;;5077143;28;20240;-83
2022/10/05 10:19:45;;;;;;;3.10;1.40;;;18.50;99.90;;;;;;5085014;28;20232;-86
2022/10/05 10:22:36;;;;;;;1.17;1.13;;;18.50;99.90;;;;;;5041549;28;20222;-85
2022/10/05 10:25:20;;;;;;;1.37;1.27;;;18.50;99.90;;;;;;5072780;28;20510;-85
2022/10/05 10:28:04;;;;;;;2.00;1.50;;;18.60;99.90;;;;;;5069086;28;20228;-82
2022/10/05 10:30:59;;;;;;;1.90;1.00;;;18.60;99.90;;;;;;5074276;28;20227;-82
2022/10/05 10:33:31;;;;;;;1.77;1.20;;;18.50;99.90;;;;;;5073237;28;20270;-83
2022/10/05 10:36:17;;;;;;;4.23;1.33;;;18.40;99.90;;;;;;5074160;28;20215;-84
2022/10/05 10:38:59;;;;;;;2.47;1.70;;;18.10;99.90;;;;;;5077417;28;20215;-86
2022/10/05 10:41:45;;;;;;;5.27;1.77;;;18.00;99.90;;;;;;5072978;28;20730;-84
2022/10/05 10:44:39;;;;;;;1.43;1.20;;;18.00;99.90;;;;;;5075869;28;20178;-84
2022/10/05 10:47:14;;;;;;;3.30;1.60;;;17.80;99.90;;;;;;5075056;28;20266;-85
2022/10/05 10:50:07;;;;;;;2.40;1.63;;;17.90;99.90;;;;;;5073598;28;20239;-84
2022/10/05 10:52:55;;;;;;;1.83;1.50;;;18.00;99.90;;;;;;5071381;28;20678;-83
2022/10/05 10:55:32;;;;;;;2.27;1.70;;;17.90;99.90;;;;;;5072876;28;20654;-84
2022/10/05 10:58:30;;;;;;;1.73;1.40;;;17.70;99.90;;;;;;5074995;28;20221;-84
2022/10/05 11:01:15;;;;;;;1.20;1.10;;;17.70;99.90;;;;;;5072157;28;20233;-86
2022/10/05 11:04:18;;;;;;;3.50;1.40;;;17.70;99.90;;;;;;5071887;28;20228;-83
2022/10/05 11:06:58;;;;;;;1.77;1.63;;;17.60;99.90;;;;;;5071352;28;20733;-87
2022/10/05 11:09:34;;;;;;;2.77;1.70;;;17.70;99.90;;;;;;5071188;28;20255;-84
2022/10/05 11:12:34;;;;;;;2.73;1.90;;;17.70;99.90;;;;;;5075991;28;20219;-85
2022/10/05 11:15:21;;;;;;;1.70;1.17;;;17.70;99.90;;;;;;5070833;28;20208;-86
2022/10/05 11:18:05;;;;;;;2.20;1.77;;;17.70;99.90;;;;;;5075179;28;20573;-83
2022/10/05 11:20:37;;;;;;;1.90;1.50;;;17.60;99.90;;;;;;5076181;28;20283;-85
2022/10/05 11:23:08;;;;;;;4.53;2.00;;;17.60;99.90;;;;;;5074673;28;20936;-83
2022/10/05 11:25:49;;;;;;;3.63;1.30;;;17.60;99.90;;;;;;5075678;28;20221;-83
2022/10/05 11:28:57;;;;;;;1.57;1.47;;;17.50;99.90;;;;;;5074531;28;20251;-85
2022/10/05 11:31:58;;;;;;;1.10;1.00;;;17.60;99.90;;;;;;5046588;28;20233;-86
2022/10/05 11:34:50;;;;;;;2.90;1.80;;;17.60;99.90;;;;;;5076199;28;20306;-85
2022/10/05 11:37:28;;;;;;;2.27;1.70;;;17.50;99.90;;;;;;5077492;28;20227;-86
2022/10/05 11:40:10;;;;;;;2.10;2.00;;;17.40;99.90;;;;;;5091194;28;20320;-86
2022/10/05 11:43:00;;;;;;;1.83;1.67;;;17.40;99.90;;;;;;5074550;28;20773;-84
2022/10/05 11:45:40;;;;;;;1.87;1.77;;;17.40;99.90;;;;;;5072067;28;20252;-86
2022/10/05 11:48:27;;;;;;;1.80;1.50;;;17.40;99.90;;;;;;5069767;28;20327;-86
2022/10/05 11:51:18;;;;;;;1.60;1.43;;;17.30;99.90;;;;;;5072318;28;20216;-85
2022/10/05 11:53:55;;;;;;;2.40;2.03;;;17.20;99.90;;;;;;5068495;28;20444;-87
2022/10/05 11:57:02;;;;;;;2.63;1.70;;;17.20;99.90;;;;;;5072867;28;20538;-84
2022/10/05 11:59:48;;;;;;;2.03;1.70;;;17.30;99.90;;;;;;5007633;28;20230;-86
2022/10/05 12:02:32;;;;;;;2.77;1.30;;;17.30;99.90;;;;;;5066532;28;20193;-86
2022/10/05 12:05:12;;;;;;;1.83;1.70;;;17.30;99.90;;;;;;5076412;28;20592;-87
2022/10/05 12:07:49;;;;;;;0.90;0.90;;;17.20;99.90;;;;;;5069342;28;20220;-87
2022/10/05 12:10:19;;;;;;;4.47;2.00;;;17.10;99.90;;;;;;5073503;28;20219;-86
2022/10/05 12:13:03;;;;;;;3.00;1.17;;;17.10;99.90;;;;;;5073443;28;20228;-85
2022/10/05 12:15:49;;;;;;;1.13;1.03;;;17.10;99.90;;;;;;5067734;28;20245;-84
2022/10/05 12:18:47;;;;;;;1.97;1.13;;;17.10;99.90;;;;;;5077806;28;20220;-85
2022/10/05 12:21:13;;;;;;;2.30;1.03;;;17.10;99.90;;;;;;5070941;28;20240;-87
2022/10/05 12:24:08;;;;;;;0.77;0.77;;;17.20;99.90;;;;;;5070962;28;20225;-89
2022/10/05 12:26:43;;;;;;;1.27;1.07;;;17.20;99.90;;;;;;5069185;28;20275;-86
2022/10/05 12:29:24;;;;;;;1.13;1.00;;;17.30;99.90;;;;;;5067919;28;20177;-87
2022/10/05 12:32:02;;;;;;;8.83;1.27;;;17.30;99.90;;;;;;5069048;28;20545;-86
2022/10/05 12:34:47;;;;;;;1.57;0.90;;;17.20;99.90;;;;;;5070498;28;20220;-83
2022/10/05 12:37:47;;;;;;;3.03;1.07;;;17.30;99.90;;;;;;5071661;28;20220;-83
2022/10/05 12:40:19;;;;;;;4.20;1.23;;;17.20;99.90;;;;;;5069342;28;20229;-83
2022/10/05 12:43:03;;;;;;;1.83;1.67;;;17.30;99.90;;;;;;5069260;28;20262;-87
2022/10/05 12:45:42;;;;;;;3.77;0.97;;;17.30;99.90;;;;;;5067686;28;20225;-86
2022/10/05 12:48:26;;;;;;;0.80;0.80;;;17.40;99.90;;;;;;5069571;28;20689;-86
2022/10/05 12:51:10;;;;;;;1.63;0.67;;;17.40;99.90;;;;;;5071407;28;20212;-86
2022/10/05 12:53:59;;;;;;;1.13;1.00;;;17.40;99.90;;;;;;5072714;28;20235;-87
2022/10/05 12:56:52;;;;;;;1.53;0.90;;;17.40;99.90;;;;;;5069939;28;20247;-85
2022/10/05 12:59:36;;;;;;;1.23;1.13;;;17.40;99.90;;;;;;5069920;28;20181;-84
2022/10/05 13:02:29;;;;;;;1.17;1.07;;;17.50;99.90;;;;;;5073335;28;20670;-84
2022/10/05 13:04:54;;;;;;;0.70;0.70;;;17.60;99.90;;;;;;5071513;28;20682;-86
2022/10/05 13:07:38;;;;;;;1.50;1.20;;;17.60;99.90;;;;;;5068824;28;20217;-84
2022/10/05 13:10:17;;;;;;;2.43;1.13;;;17.60;99.90;;;;;;5069356;28;20255;-87
2022/10/05 13:13:20;;;;;;;1.33;0.80;;;17.70;99.90;;;;;;5075777;28;20220;-84
2022/10/05 13:16:23;;;;;;;2.03;1.37;;;17.80;99.90;;;;;;5075408;28;20236;-84
2022/10/05 13:19:10;;;;;;;2.10;1.13;;;18.10;99.90;;;;;;5075730;28;20248;-85
2022/10/05 13:21:46;;;;;;;2.00;1.60;;;18.30;99.90;;;;;;5075890;28;20231;-88
2022/10/05 13:24:26;;;;;;;2.03;1.83;;;18.20;99.90;;;;;;5072088;28;20686;-85
2022/10/05 13:26:59;;;;;;;3.23;1.87;;;18.20;99.90;;;;;;5071599;28;20213;-88
2022/10/05 13:29:46;;;;;;;3.13;1.90;;;18.20;99.90;;;;;;5072443;28;20188;-85
2022/10/05 13:32:37;;;;;;;4.20;2.00;;;18.30;99.90;;;;;;5075133;28;20636;-85
2022/10/05 13:35:40;;;;;;;2.43;2.23;;;18.40;99.90;;;;;;5057633;28;20224;-85
2022/10/05 13:38:23;;;;;;;3.30;3.00;;;18.20;99.90;;;;;;5073850;28;20216;-84
2022/10/05 13:41:36;;;;;;;5.20;2.87;;;18.00;99.90;;;;;;5072732;28;20236;-86
2022/10/05 13:44:49;;;;;;;3.73;2.30;;;18.10;99.90;;;;;;5010164;28;20261;-84
2022/10/05 13:47:38;;;;;;;3.33;2.40;;;18.10;99.90;;;;;;5040782;28;20258;-88
2022/10/05 13:50:23;;;;;;;4.30;2.27;;;18.10;99.90;;;;;;5074880;28;20654;-84
2022/10/05 13:52:58;;;;;;;3.23;2.10;;;18.10;99.90;;;;;;5073553;28;20765;-87
2022/10/05 13:56:12;;;;;;;2.10;1.87;;;18.00;99.90;;;;;;5074144;28;20253;-88
2022/10/05 13:59:01;;;;;;;8.47;2.00;;;17.80;99.90;;;;;;5022369;28;20212;-84
2022/10/05 14:01:47;;;;;;;2.77;2.27;;;17.80;99.90;;;;;;5076404;28;20293;-85
2022/10/05 14:04:16;;;;;;;1.73;1.60;;;17.90;99.90;;;;;;5072664;28;20331;-84
2022/10/05 14:06:43;;;;;;;4.13;2.43;;;17.90;99.90;;;;;;5076027;28;20700;-87
2022/10/05 14:09:19;;;;;;;2.70;2.33;;;17.90;99.90;;;;;;5073164;28;20247;-86
2022/10/05 14:11:53;;;;;;;2.10;1.83;;;17.90;99.90;;;;;;5074800;28;20713;-85
2022/10/05 14:14:29;;;;;;;2.87;2.10;;;17.80;99.90;;;;;;5070914;28;20177;-87
2022/10/05 14:16:57;;;;;;;1.90;1.70;;;17.60;99.90;;;;;;5072552;28;20237;-88